createdAt,value
2022-12-05T00:01:18.322Z,0.35
2022-12-05T00:03:48.196Z,0.28
2022-12-05T00:06:16.403Z,0.31
2022-12-05T00:08:44.781Z,0.17
2022-12-05T00:11:14.089Z,0.19
2022-12-05T00:13:42.848Z,0.20
2022-12-05T00:16:12.669Z,0.19
2022-12-05T00:18:40.647Z,0.23
2022-12-05T00:21:14.777Z,0.20
2022-12-05T00:23:42.855Z,0.10
2022-12-05T00:26:11.182Z,0.16
2022-12-05T00:28:39.467Z,0.11
2022-12-05T00:31:09.036Z,0.05
2022-12-05T00:33:37.478Z,0.16
2022-12-05T00:36:06.894Z,0.26
2022-12-05T00:38:36.020Z,0.22
2022-12-05T00:41:04.836Z,0.23
2022-12-05T00:43:32.545Z,0.24
2022-12-05T00:46:02.585Z,0.23
2022-12-05T00:48:30.602Z,0.26
2022-12-05T00:51:02.934Z,0.34
2022-12-05T00:53:30.740Z,0.35
2022-12-05T00:56:03.865Z,0.28
2022-12-05T00:58:32.130Z,0.32
2022-12-05T01:01:06.734Z,0.47
2022-12-05T01:03:34.716Z,0.31
2022-12-05T01:06:02.760Z,0.30
2022-12-05T01:08:30.416Z,0.21
2022-12-05T01:11:02.043Z,0.16
2022-12-05T01:13:30.311Z,0.19
2022-12-05T01:15:58.814Z,0.18
2022-12-05T01:18:27.619Z,0.33
2022-12-05T01:20:56.089Z,0.29
2022-12-05T01:23:24.497Z,0.27
2022-12-05T01:25:53.658Z,0.42
2022-12-05T01:28:22.959Z,0.39
2022-12-05T01:30:51.648Z,0.27
2022-12-05T01:33:19.559Z,0.32
2022-12-05T01:35:47.379Z,0.32
2022-12-05T01:38:15.209Z,0.25
2022-12-05T01:40:43.019Z,0.22
2022-12-05T01:43:16.043Z,0.34
2022-12-05T01:45:47.156Z,0.30
2022-12-05T01:48:20.085Z,0.36
2022-12-05T01:50:49.863Z,0.20
2022-12-05T01:53:18.570Z,0.34
2022-12-05T01:55:48.999Z,0.28
2022-12-05T01:58:17.376Z,0.17
2022-12-05T02:00:46.457Z,0.25
2022-12-05T02:03:20.277Z,0.18
2022-12-05T02:05:51.123Z,0.23
2022-12-05T02:08:18.962Z,0.21
2022-12-05T02:10:50.789Z,0.25
2022-12-05T02:13:35.556Z,0.20
2022-12-05T02:16:13.050Z,0.19
2022-12-05T02:18:54.176Z,0.25
2022-12-05T02:21:44.963Z,0.32
2022-12-05T02:24:39.980Z,0.18
2022-12-05T02:27:37.550Z,0.19
2022-12-05T02:30:12.982Z,0.17
2022-12-05T02:33:05.389Z,0.30
2022-12-05T02:35:41.942Z,0.35
2022-12-05T02:38:26.109Z,0.27
2022-12-05T02:41:05.162Z,0.25
2022-12-05T02:43:39.469Z,0.27
2022-12-05T02:46:12.475Z,0.24
2022-12-05T02:48:43.530Z,0.15
2022-12-05T02:51:15.316Z,0.17
2022-12-05T02:53:45.369Z,0.19
2022-12-05T02:56:13.842Z,0.30
2022-12-05T02:58:48.115Z,0.31
2022-12-05T03:01:17.380Z,0.18
2022-12-05T03:03:45.276Z,0.20
2022-12-05T03:06:15.471Z,0.18
2022-12-05T03:08:48.435Z,-0.01
2022-12-05T03:11:16.559Z,0.18
2022-12-05T03:13:48.745Z,0.24
2022-12-05T03:16:22.098Z,0.17
2022-12-05T03:18:55.488Z,-0.02
2022-12-05T03:21:31.515Z,0.25
2022-12-05T03:24:03.794Z,0.23
2022-12-05T03:26:38.992Z,0.15
2022-12-05T03:29:21.294Z,0.17
2022-12-05T03:32:01.225Z,0.09
2022-12-05T03:34:38.470Z,0.24
2022-12-05T03:37:14.571Z,0.22
2022-12-05T03:39:49.251Z,0.18
2022-12-05T03:42:20.199Z,0.28
2022-12-05T03:44:53.585Z,0.08
2022-12-05T03:47:30.438Z,0.36
2022-12-05T03:50:03.416Z,0.33
2022-12-05T03:52:51.054Z,0.37
2022-12-05T03:55:26.593Z,0.27
2022-12-05T03:57:59.224Z,0.19
2022-12-05T04:00:31.185Z,0.38
2022-12-05T04:03:07.326Z,0.41
2022-12-05T04:05:41.377Z,0.36
2022-12-05T04:08:13.831Z,0.33
2022-12-05T04:10:49.434Z,0.44
2022-12-05T04:13:21.043Z,0.51
2022-12-05T04:16:13.413Z,0.52
2022-12-05T04:18:50.862Z,0.51
2022-12-05T04:21:38.407Z,0.36
2022-12-05T04:24:26.864Z,0.45
2022-12-05T04:27:05.116Z,0.50
2022-12-05T04:29:38.810Z,0.60
2022-12-05T04:32:12.003Z,0.52
2022-12-05T04:34:46.132Z,0.54
2022-12-05T04:37:19.535Z,0.59
2022-12-05T04:39:51.254Z,0.37
2022-12-05T04:42:22.150Z,0.54
2022-12-05T04:44:53.797Z,0.56
2022-12-05T04:47:25.505Z,0.53
2022-12-05T04:49:56.058Z,0.52
2022-12-05T04:52:24.446Z,0.55
2022-12-05T04:54:57.541Z,0.52
2022-12-05T04:57:31.085Z,0.56
2022-12-05T04:59:58.912Z,0.53
2022-12-05T05:02:33.186Z,0.58
2022-12-05T05:05:06.339Z,0.60
2022-12-05T05:07:44.583Z,0.63
2022-12-05T05:10:16.089Z,0.51
2022-12-05T05:12:43.800Z,0.54
2022-12-05T05:15:11.921Z,0.66
2022-12-05T05:17:39.670Z,0.76
2022-12-05T05:20:24.901Z,0.52
2022-12-05T05:22:53.939Z,0.63
2022-12-05T05:25:22.114Z,0.57
2022-12-05T05:27:52.065Z,0.75
2022-12-05T05:30:20.755Z,0.63
2022-12-05T05:32:48.604Z,0.58
2022-12-05T05:35:18.028Z,0.58
2022-12-05T05:37:45.928Z,0.37
2022-12-05T05:40:14.785Z,0.60
2022-12-05T05:42:46.525Z,0.63
2022-12-05T05:45:15.810Z,0.49
2022-12-05T05:47:44.095Z,0.58
2022-12-05T05:50:17.923Z,0.61
2022-12-05T05:52:50.465Z,0.57
2022-12-05T05:55:18.377Z,0.63
2022-12-05T05:57:46.280Z,0.66
2022-12-05T06:00:15.684Z,0.70
2022-12-05T06:02:43.518Z,0.75
2022-12-05T06:05:11.490Z,0.72
2022-12-05T06:07:39.331Z,0.79
2022-12-05T06:10:09.808Z,0.76
2022-12-05T06:12:37.492Z,0.62
2022-12-05T06:15:05.995Z,0.78
2022-12-05T06:17:33.649Z,0.67
2022-12-05T06:20:01.519Z,0.75
2022-12-05T06:22:30.719Z,0.75
2022-12-05T06:24:59.690Z,0.86
2022-12-05T06:27:30.728Z,0.86
2022-12-05T06:29:58.822Z,0.84
2022-12-05T06:32:28.766Z,0.95
2022-12-05T06:34:56.535Z,0.94
2022-12-05T06:37:24.201Z,0.91
2022-12-05T06:39:52.360Z,0.68
2022-12-05T06:42:22.128Z,0.78
2022-12-05T06:44:51.165Z,0.86
2022-12-05T06:47:18.792Z,0.94
2022-12-05T06:49:46.480Z,0.89
2022-12-05T06:52:14.175Z,0.53
2022-12-05T06:54:41.874Z,0.90
2022-12-05T06:57:09.646Z,0.94
2022-12-05T06:59:37.337Z,0.79
2022-12-05T07:02:08.084Z,0.96
2022-12-05T07:04:36.039Z,0.98
2022-12-05T07:07:03.701Z,1.04
2022-12-05T07:09:45.433Z,1.04
2022-12-05T07:12:14.269Z,0.95
2022-12-05T07:14:50.069Z,0.86
2022-12-05T07:17:20.490Z,1.10
2022-12-05T07:19:49.346Z,1.06
2022-12-05T07:22:17.378Z,1.05
2022-12-05T07:24:45.586Z,0.93
2022-12-05T07:27:13.804Z,1.14
2022-12-05T07:29:41.543Z,1.18
2022-12-05T07:32:09.461Z,1.22
2022-12-05T07:34:39.434Z,1.22
2022-12-05T07:37:07.185Z,1.19
2022-12-05T07:39:34.992Z,1.27
2022-12-05T07:42:02.651Z,1.24
2022-12-05T07:44:31.163Z,1.20
2022-12-05T07:46:59.412Z,1.24
2022-12-05T07:49:27.347Z,1.31
2022-12-05T07:51:56.353Z,1.33
2022-12-05T07:54:24.275Z,1.48
2022-12-05T07:56:52.007Z,1.44
2022-12-05T07:59:19.934Z,1.35
2022-12-05T08:01:47.765Z,1.29
2022-12-05T08:04:16.098Z,1.22
2022-12-05T08:06:44.167Z,1.23
2022-12-05T08:09:13.377Z,1.30
2022-12-05T08:11:41.111Z,1.34
2022-12-05T08:14:08.870Z,1.35
2022-12-05T08:16:36.722Z,1.34
2022-12-05T08:19:07.338Z,1.18
2022-12-05T08:21:35.733Z,1.37
2022-12-05T08:24:05.712Z,1.39
2022-12-05T08:26:36.383Z,1.38
2022-12-05T08:29:06.917Z,1.39
2022-12-05T08:31:37.645Z,1.37
2022-12-05T08:34:05.729Z,1.41
2022-12-05T08:36:33.597Z,1.44
2022-12-05T08:39:03.165Z,1.47
2022-12-05T08:41:31.055Z,1.44
2022-12-05T08:44:03.014Z,1.52
2022-12-05T08:46:31.063Z,1.54
2022-12-05T08:48:58.846Z,1.55
2022-12-05T08:51:26.709Z,1.67
2022-12-05T08:53:56.217Z,1.62
2022-12-05T08:56:27.211Z,1.61
2022-12-05T08:59:01.281Z,1.51
2022-12-05T09:01:33.235Z,1.59
2022-12-05T09:04:01.598Z,1.62
2022-12-05T09:06:30.220Z,1.68
2022-12-05T09:08:59.598Z,1.64
2022-12-05T09:11:29.865Z,1.63
2022-12-05T09:13:59.248Z,1.67
2022-12-05T09:16:35.255Z,1.60
2022-12-05T09:19:13.204Z,1.74
2022-12-05T09:21:41.477Z,1.73
2022-12-05T09:24:10.811Z,1.67
2022-12-05T09:26:40.858Z,1.79
2022-12-05T09:29:15.727Z,1.79
2022-12-05T09:31:45.497Z,1.79
2022-12-05T09:34:15.207Z,1.79
2022-12-05T09:36:43.372Z,1.78
2022-12-05T09:39:12.187Z,1.80
2022-12-05T09:42:13.195Z,1.82
2022-12-05T09:44:45.217Z,1.85
2022-12-05T09:47:21.753Z,1.84
2022-12-05T09:49:56.180Z,1.96
2022-12-05T09:52:28.757Z,1.93
2022-12-05T09:54:58.312Z,2.00
2022-12-05T09:57:35.080Z,1.99
2022-12-05T10:00:05.936Z,2.04
2022-12-05T10:02:43.091Z,2.03
2022-12-05T10:05:18.640Z,2.02
2022-12-05T10:07:54.910Z,1.99
2022-12-05T10:10:30.642Z,1.99
2022-12-05T10:13:10.066Z,2.07
2022-12-05T10:15:45.580Z,2.16
2022-12-05T10:18:28.352Z,2.18
2022-12-05T10:21:02.797Z,2.17
2022-12-05T10:26:21.854Z,2.20
2022-12-05T10:28:56.998Z,2.24
2022-12-05T10:31:31.621Z,2.31
2022-12-05T10:34:05.301Z,2.29
2022-12-05T10:36:36.303Z,2.29
2022-12-05T10:39:09.920Z,2.30
2022-12-05T10:41:39.361Z,2.35
2022-12-05T10:44:07.379Z,2.32
2022-12-05T10:46:35.225Z,2.40
2022-12-05T10:49:03.575Z,2.39
2022-12-05T10:51:37.240Z,2.43
2022-12-05T10:54:17.979Z,2.60
2022-12-05T10:56:47.602Z,2.57
2022-12-05T10:59:17.617Z,2.59
2022-12-05T11:01:49.328Z,2.59
2022-12-05T11:04:24.631Z,2.65
2022-12-05T11:06:55.176Z,2.76
2022-12-05T11:09:26.690Z,2.63
2022-12-05T11:12:18.756Z,2.63
2022-12-05T11:15:06.760Z,2.56
2022-12-05T11:17:36.563Z,2.59
2022-12-05T11:20:25.616Z,2.62
2022-12-05T11:22:56.224Z,2.80
2022-12-05T11:25:30.527Z,2.86
2022-12-05T11:28:01.660Z,2.91
2022-12-05T11:30:30.966Z,2.90
2022-12-05T11:33:12.623Z,2.93
2022-12-05T11:35:41.210Z,2.98
2022-12-05T11:38:12.473Z,2.90
2022-12-05T11:40:49.156Z,2.97
2022-12-05T11:43:39.424Z,3.07
2022-12-05T11:46:15.182Z,3.00
2022-12-05T11:49:01.272Z,3.00
2022-12-05T11:51:39.522Z,3.07
2022-12-05T11:57:34.805Z,3.09
2022-12-05T12:00:20.610Z,3.06
2022-12-05T12:03:19.900Z,2.98
2022-12-05T12:06:02.553Z,3.18
2022-12-05T12:08:32.180Z,3.26
2022-12-05T12:11:11.948Z,3.15
2022-12-05T12:14:02.288Z,3.17
2022-12-05T12:16:43.794Z,3.22
2022-12-05T12:19:40.614Z,3.11
2022-12-05T12:22:24.938Z,3.20
2022-12-05T12:25:06.551Z,3.17
2022-12-05T12:27:51.685Z,3.23
2022-12-05T12:30:23.398Z,3.20
2022-12-05T12:32:59.675Z,3.21
2022-12-05T12:35:32.276Z,3.23
2022-12-05T12:38:23.463Z,3.04
2022-12-05T12:40:54.119Z,3.18
2022-12-05T12:46:40.846Z,3.17
2022-12-05T12:49:37.068Z,3.15
2022-12-05T12:52:12.964Z,2.99
2022-12-05T12:55:03.983Z,3.08
2022-12-05T12:57:44.561Z,3.12
2022-12-05T13:00:23.063Z,3.11
2022-12-05T13:02:57.738Z,3.17
2022-12-05T13:05:34.126Z,3.18
2022-12-05T13:08:07.914Z,3.22
2022-12-05T13:10:40.631Z,3.21
2022-12-05T13:13:12.033Z,3.26
2022-12-05T13:15:44.629Z,3.11
2022-12-05T13:18:17.588Z,3.19
2022-12-05T13:20:47.609Z,3.20
2022-12-05T13:23:19.187Z,3.22
2022-12-05T13:25:48.881Z,3.13
2022-12-05T13:28:27.620Z,3.21
2022-12-05T13:31:01.479Z,3.00
2022-12-05T13:33:34.706Z,3.13
2022-12-05T13:36:29.292Z,3.11
2022-12-05T13:39:17.097Z,3.06
2022-12-05T13:42:04.508Z,3.00
2022-12-05T13:44:37.715Z,3.02
2022-12-05T13:47:10.107Z,2.97
2022-12-05T13:49:46.098Z,2.86
2022-12-05T13:52:16.907Z,2.78
2022-12-05T13:54:48.661Z,2.96
2022-12-05T13:57:45.986Z,2.96
2022-12-05T14:00:29.963Z,2.99
2022-12-05T14:03:04.836Z,3.02
2022-12-05T14:05:43.990Z,2.94
2022-12-05T14:09:02.635Z,2.90
2022-12-05T14:11:30.407Z,2.84
2022-12-05T14:14:04.057Z,2.90
2022-12-05T14:16:45.472Z,2.92
2022-12-05T14:19:34.680Z,2.91
2022-12-05T14:22:23.693Z,3.00
2022-12-05T14:24:58.050Z,2.92
2022-12-05T14:27:41.305Z,2.88
2022-12-05T14:30:22.505Z,2.92
2022-12-05T14:32:53.573Z,2.92
2022-12-05T14:35:31.060Z,2.86
2022-12-05T14:38:03.633Z,2.66
2022-12-05T14:40:33.996Z,2.84
2022-12-05T14:43:04.390Z,2.77
2022-12-05T14:45:36.167Z,2.76
2022-12-05T14:48:06.483Z,2.79
2022-12-05T14:50:41.285Z,2.89
2022-12-05T14:53:23.391Z,2.79
2022-12-05T14:55:55.232Z,2.80
2022-12-05T14:58:32.442Z,2.80
2022-12-05T15:01:02.695Z,2.72
2022-12-05T15:03:33.734Z,2.74
2022-12-05T15:06:04.814Z,2.63
2022-12-05T15:08:43.224Z,2.76
2022-12-05T15:11:28.041Z,2.76
2022-12-05T15:13:59.763Z,2.66
2022-12-05T15:16:30.013Z,2.54
2022-12-05T15:19:02.775Z,2.53
2022-12-05T15:21:36.568Z,2.62
2022-12-05T15:24:12.617Z,2.51
2022-12-05T15:26:47.704Z,2.65
2022-12-05T15:29:18.336Z,2.59
2022-12-05T15:31:48.182Z,2.57
2022-12-05T15:34:20.870Z,2.60
2022-12-05T15:36:52.964Z,2.56
2022-12-05T15:39:28.442Z,2.47
2022-12-05T15:41:57.578Z,2.48
2022-12-05T15:44:34.425Z,2.46
2022-12-05T15:47:08.115Z,2.49
2022-12-05T15:49:36.175Z,2.47
2022-12-05T15:52:20.073Z,2.32
2022-12-05T15:54:49.509Z,2.42
2022-12-05T15:57:22.485Z,2.42
2022-12-05T15:59:56.882Z,2.37
2022-12-05T16:02:30.292Z,2.30
2022-12-05T16:05:00.344Z,2.42
2022-12-05T16:07:32.160Z,2.46
2022-12-05T16:10:02.877Z,2.35
2022-12-05T16:12:36.485Z,2.33
2022-12-05T16:15:09.355Z,2.25
2022-12-05T16:17:43.195Z,2.43
2022-12-05T16:20:12.791Z,2.44
2022-12-05T16:22:45.203Z,2.24
2022-12-05T16:25:17.610Z,2.38
2022-12-05T16:27:57.745Z,2.38
2022-12-05T16:30:26.297Z,2.39
2022-12-05T16:33:01.795Z,2.43
2022-12-05T16:35:32.731Z,2.44
2022-12-05T16:38:11.824Z,2.46
2022-12-05T16:40:43.337Z,2.40
2022-12-05T16:43:21.359Z,2.20
2022-12-05T16:45:50.602Z,2.42
2022-12-05T16:48:21.941Z,2.37
2022-12-05T16:50:51.093Z,2.32
2022-12-05T16:53:22.303Z,2.31
2022-12-05T16:55:51.438Z,2.30
2022-12-05T16:58:24.085Z,2.34
2022-12-05T17:00:51.819Z,2.31
2022-12-05T17:03:33.990Z,2.27
2022-12-05T17:06:02.853Z,2.27
2022-12-05T17:08:30.607Z,2.23
2022-12-05T17:11:01.769Z,2.32
2022-12-05T17:13:30.222Z,2.40
2022-12-05T17:15:57.970Z,2.34
2022-12-05T17:18:31.207Z,2.09
2022-12-05T17:21:02.382Z,2.32
2022-12-05T17:23:32.382Z,2.31
2022-12-05T17:26:01.576Z,2.50
2022-12-05T17:28:29.294Z,2.45
2022-12-05T17:30:57.200Z,2.41
2022-12-05T17:33:26.320Z,2.52
2022-12-05T17:35:54.168Z,2.47
2022-12-05T17:38:21.997Z,2.51
2022-12-05T17:40:49.750Z,2.46
2022-12-05T17:43:24.503Z,2.37
2022-12-05T17:45:54.496Z,2.34
2022-12-05T17:48:22.308Z,2.41
2022-12-05T17:50:50.547Z,2.34
2022-12-05T17:53:20.690Z,2.35
2022-12-05T17:55:49.024Z,2.31
2022-12-05T17:58:18.761Z,2.24
2022-12-05T18:00:47.644Z,2.21
2022-12-05T18:03:17.437Z,2.21
2022-12-05T18:05:46.402Z,2.21
2022-12-05T18:08:15.962Z,2.18
2022-12-05T18:10:44.935Z,2.18
2022-12-05T18:13:13.457Z,2.15
2022-12-05T18:15:43.505Z,2.19
2022-12-05T18:18:15.730Z,2.17
2022-12-05T18:20:43.954Z,2.02
2022-12-05T18:23:11.793Z,2.11
2022-12-05T18:25:41.552Z,2.06
2022-12-05T18:28:09.306Z,2.08
2022-12-05T18:30:37.063Z,2.13
2022-12-05T18:33:06.133Z,2.15
2022-12-05T18:35:42.875Z,2.15
2022-12-05T18:38:12.104Z,2.14
2022-12-05T18:40:40.069Z,2.15
2022-12-05T18:43:07.745Z,2.09
2022-12-05T18:45:35.562Z,2.05
2022-12-05T18:48:37.637Z,2.05
2022-12-05T18:50:52.813Z,1.99
2022-12-05T18:53:20.544Z,1.96
2022-12-05T18:58:36.267Z,1.94
2022-12-05T19:01:09.156Z,1.95
2022-12-05T19:03:38.125Z,1.92
2022-12-05T19:06:13.820Z,1.91
2022-12-05T19:08:42.695Z,2.06
2022-12-05T19:11:10.470Z,1.99
2022-12-05T19:13:38.279Z,2.10
2022-12-05T19:16:08.190Z,2.05
2022-12-05T19:18:35.993Z,1.92
2022-12-05T19:21:04.313Z,1.76
2022-12-05T19:23:35.114Z,1.76
2022-12-05T19:26:03.963Z,1.76
2022-12-05T19:28:33.546Z,1.74
2022-12-05T19:31:03.174Z,1.82
2022-12-05T19:33:32.360Z,1.69
2022-12-05T19:36:03.852Z,1.65
2022-12-05T19:38:34.493Z,1.66
2022-12-05T19:41:02.830Z,1.60
2022-12-05T19:43:31.131Z,1.52
2022-12-05T19:45:59.392Z,1.58
2022-12-05T19:48:27.322Z,1.73
2022-12-05T19:50:56.547Z,1.54
2022-12-05T19:53:24.816Z,1.57
2022-12-05T19:56:01.272Z,1.48
2022-12-05T19:58:30.053Z,1.45
2022-12-05T20:00:58.113Z,1.40
2022-12-05T20:03:25.948Z,1.36
2022-12-05T20:05:58.420Z,1.37
2022-12-05T20:08:26.306Z,1.45
2022-12-05T20:10:55.393Z,1.41
2022-12-05T20:13:45.938Z,1.26
2022-12-05T20:16:13.226Z,1.18
2022-12-05T20:18:41.926Z,1.18
2022-12-05T20:21:12.382Z,1.25
2022-12-05T20:23:40.254Z,1.27
2022-12-05T20:26:11.200Z,1.22
2022-12-05T20:28:39.835Z,1.19
2022-12-05T20:31:09.462Z,1.13
2022-12-05T20:33:37.927Z,1.07
2022-12-05T20:36:07.416Z,1.05
2022-12-05T20:38:35.385Z,1.07
2022-12-05T20:41:05.663Z,1.09
2022-12-05T20:43:35.622Z,1.16
2022-12-05T20:46:08.349Z,1.10
2022-12-05T20:48:36.224Z,1.04
2022-12-05T20:51:08.415Z,1.08
2022-12-05T20:53:36.951Z,1.00
2022-12-05T20:56:06.138Z,0.98
2022-12-05T20:58:35.810Z,0.98
2022-12-05T21:01:06.961Z,0.87
2022-12-05T21:03:35.108Z,0.89
2022-12-05T21:06:08.515Z,0.85
2022-12-05T21:08:36.298Z,0.82
2022-12-05T21:11:04.293Z,0.83
2022-12-05T21:13:32.615Z,0.60
2022-12-05T21:16:05.012Z,0.77
2022-12-05T21:18:33.141Z,0.78
2022-12-05T21:21:03.085Z,0.79
2022-12-05T21:23:31.538Z,0.83
2022-12-05T21:26:03.298Z,0.90
2022-12-05T21:28:34.377Z,0.97
2022-12-05T21:31:09.846Z,1.04
2022-12-05T21:33:37.986Z,0.92
2022-12-05T21:36:07.572Z,0.80
2022-12-05T21:38:36.041Z,0.72
2022-12-05T21:41:04.832Z,0.83
2022-12-05T21:43:33.895Z,0.81
2022-12-05T21:46:01.781Z,0.60
2022-12-05T21:48:31.231Z,0.75
2022-12-05T21:51:02.625Z,0.66
2022-12-05T21:53:30.353Z,0.50
2022-12-05T21:56:01.685Z,0.63
2022-12-05T21:58:29.659Z,0.61
2022-12-05T22:00:57.585Z,0.54
2022-12-05T22:03:25.332Z,0.43
2022-12-05T22:06:02.365Z,0.43
2022-12-05T22:08:32.409Z,0.41
2022-12-05T22:11:05.637Z,0.59
2022-12-05T22:13:33.476Z,0.50
2022-12-05T22:16:02.259Z,0.46
2022-12-05T22:18:30.586Z,0.55
2022-12-05T22:20:58.552Z,0.52
2022-12-05T22:23:28.826Z,0.53
2022-12-05T22:25:58.301Z,0.51
2022-12-05T22:28:26.075Z,0.49
2022-12-05T22:30:55.157Z,0.43
2022-12-05T22:33:22.965Z,0.40
2022-12-05T22:35:54.057Z,0.21
2022-12-05T22:38:21.753Z,0.41
2022-12-05T22:40:55.271Z,0.41
2022-12-05T22:43:23.889Z,0.27
2022-12-05T22:45:52.497Z,0.40
2022-12-05T22:48:20.651Z,0.43
2022-12-05T22:50:48.883Z,0.41
2022-12-05T22:53:19.982Z,0.40
2022-12-05T22:55:47.798Z,0.44
2022-12-05T22:58:17.333Z,0.44
2022-12-05T23:00:46.122Z,0.46
2022-12-05T23:03:15.168Z,0.42
2022-12-05T23:05:46.379Z,0.52
2022-12-05T23:08:14.349Z,0.53
2022-12-05T23:10:42.275Z,0.53
2022-12-05T23:13:10.440Z,0.52
2022-12-05T23:15:39.865Z,0.35
2022-12-05T23:18:08.586Z,0.38
2022-12-05T23:20:36.467Z,0.56
2022-12-05T23:23:04.391Z,0.42
2022-12-05T23:25:32.229Z,0.58
2022-12-05T23:28:00.217Z,0.62
2022-12-05T23:30:28.099Z,0.66
2022-12-05T23:32:57.359Z,0.56
2022-12-05T23:35:25.306Z,0.68
2022-12-05T23:37:54.371Z,0.70
2022-12-05T23:40:22.272Z,0.79
2022-12-05T23:42:50.157Z,0.80
2022-12-05T23:45:18.121Z,0.56
2022-12-05T23:47:46.051Z,0.67
2022-12-05T23:50:15.505Z,0.81
2022-12-05T23:52:43.385Z,0.60
2022-12-05T23:55:11.255Z,0.82
2022-12-05T23:57:39.186Z,0.67
